A- A+ FrançaisEnglishEspañol中国

le plus proche LFBE Bergerac-RoumaniereLFBT Tarbes-Lourdes-PyrénéesLFMD Cannes-Mandelieu LFBP Pau-Pyrénées

manche à air

La météo aéronautique pour les pilotes, la préparation du vol avec les METAR (METeorological Aerodrome Report, message d'observation des conditions météorologiques pour l'aviation) et Les TAF (Terminal Aerodrome Forecast : message de prévision à court terme des conditions météorologiques pour l'aviation). Et les autres ressources comme les VAC (Visual Approch Chart) et les NOTAM (Notice To Airman) pour préprer les vols.

Aéroport Cartwright (Canada) / OACI CYCA/ IATA YRF

L'altitude de l'aéroport Cartwright est de 12 m=39 ft. Il est situé à proximité de Cartwright (Canada). La météo générale à 5 jours est disponible pour Cartwright situé à 4.4 km.

METAR de l'aéroport Cartwright - CYCA

CYCA 030004Z AUTO 34005KT 280V350 1 3/4SM -SN OVC012 M00/M00 A2908 RMK SLP849

Décodage du METAR de l'aéroport Cartwright (CA)

METAR émis par CYCA le vendredi 3 janvier 2020 à 00:04 heure TU. C'est un METAR généré automatiquement. Attention ce METAR est obsolète car il a été émis il y a 21 heure et 2 minutes.

La visibilité est de 2.8 km=1.75 sm.

La température est de 0°C=32 °F et le point rosée est de 0°C=32 °F . Ce qui correspond à 100% d'humidité relative.

Le QNH est de 985 hPa=29.09 inHg

Vent de 5 kt=9 km/h, orienté à 340°.

Nuages : Couverture nuageuse soudée à 1200 ft=370 mètres.

-SN

RMK SLP849

TAF de l'aéroport Cartwright - CYCA

CYCA 021938Z 0220/0308 22008KT 1SM -SN VV010 TEMPO 0220/0306 3SM -SN OVC010 FM030600 34008KT 2SM -SN OVC020 RMK FCST BASED ON AUTO OBS. NXT FCST BY 030200Z

CYCA 021938Z 0220/0308 22008KT 1SM faible SN VV010 temporairement 0220/0306 3SM faible SN couverture nuageuse soudée à 010 FM030600 34008KT 2SM faible SN couverture nuageuse soudée à 020 remarques trombe ST BASED ON AUTO OBS. NXT trombe ST BY 030200Z

Aéroport à proximité de Cartwright

Météo générale à 5 jours à Cartwright (4.4 km)CYMH Aéroport Mary's Harbour (173 km)CYFT Aéroport Makkovik (208 km)CYYR Aéroport Goose Bay (227 km)CYBX Aéroport Lourdes Le Blanc Sablon (249 km)CYAY Aéroport St Anthony (263 km)CYHO Aéroport Hopedale (284 km)

Vue aérienne de l'aéroport Cartwright

NOTAM de l'aéroport Cartwright

Les NOTAM sont fournis sans aucune garantie de leur actualité. Le pilote est le seul responsable de la vérification de sa validité avant de l'utiliser opérationnellement pour préparer un vol ou l'utiliser lors de sa navigation.

NOTAM Non-directional radio beacon (à partir du dimanche 29 décembre 2019 à 15:37 jusqu'au jeudi 30 janvier 2020 à 19:30)

N0983/19 NOTAMR N0741/19
Q) CZQX/QNBXX/IV/BO/AE/000/999/5343N05701W025
A) CYCA B) 1912291537 C) 2001301930
E) CARTWRIGHT NDB CA 271KHZ UNMONITORED
CREATED: 29 Dec 2019 15:37:00
SOURCE: CYHQYNYX

Sources des données